Terminal Aerodrome Forecast
Issued by NWS Twin Cities, MN

Home | Current Version | Previous Version | Text Only | Print | Product List | Glossary On
Versions: 1 2 3 4 5 6 7 8 9 10 11 12 13 14 15 16 17 18 19 20 21 22 23 24 25 26 27 28 29
754
FTUS43 KMPX 251500 AAA
TAFMSP
TAF AMD
KMSP 251500Z 2515/2618 32012G18KT P6SM SKC
     FM251900 28011KT P6SM FEW025 BKN050
     FM260000 21008KT P6SM SCT050 OVC090
     FM260700 21008KT P6SM SCT025 BKN050=

USA.gov is the U.S. government's official web portal to all federal, state and local government web resources and services.